createdAt,value
2024-02-10T00:00:27.461Z,22.00
2024-02-10T00:01:00.251Z,22.40
2024-02-10T00:01:32.999Z,22.40
2024-02-10T00:02:05.773Z,23.00
2024-02-10T00:02:38.477Z,22.30
2024-02-10T00:03:11.165Z,22.50
2024-02-10T00:03:43.920Z,22.40
2024-02-10T00:04:10.465Z,22.80
2024-02-10T00:04:43.249Z,22.70
2024-02-10T00:05:16.552Z,21.60
2024-02-10T00:05:42.887Z,22.20
2024-02-10T00:06:15.638Z,22.20
2024-02-10T00:06:48.294Z,21.70
2024-02-10T00:07:21.025Z,22.10
2024-02-10T00:07:53.978Z,22.30
2024-02-10T00:08:20.301Z,22.20
2024-02-10T00:08:53.007Z,21.40
2024-02-10T00:09:25.683Z,22.20
2024-02-10T00:09:58.350Z,22.20
2024-02-10T00:10:31.179Z,22.40
2024-02-10T00:11:04.000Z,21.80
2024-02-10T00:11:36.881Z,22.50
2024-02-10T00:12:09.535Z,21.70
2024-02-10T00:12:42.196Z,22.40
2024-02-10T00:13:14.901Z,21.60
2024-02-10T00:13:47.618Z,21.90
2024-02-10T00:14:20.270Z,22.00
2024-02-10T00:14:52.932Z,21.60
2024-02-10T00:15:25.593Z,22.00
2024-02-10T00:15:58.259Z,22.30
2024-02-10T00:16:30.999Z,22.70
2024-02-10T00:17:03.746Z,22.70
2024-02-10T00:17:36.466Z,22.00
2024-02-10T00:18:09.150Z,21.10
2024-02-10T00:18:42.237Z,21.90
2024-02-10T00:19:08.730Z,22.00
2024-02-10T00:19:41.413Z,22.00
2024-02-10T00:20:14.197Z,21.70
2024-02-10T00:20:46.852Z,21.80
2024-02-10T00:21:17.959Z,22.40
2024-02-10T00:21:44.692Z,21.60
2024-02-10T00:22:17.384Z,21.70
2024-02-10T00:22:50.073Z,22.60
2024-02-10T00:23:22.809Z,22.10
2024-02-10T00:23:55.651Z,22.30
2024-02-10T00:24:28.417Z,22.90
2024-02-10T00:25:01.089Z,21.40
2024-02-10T00:25:33.807Z,22.50
2024-02-10T00:26:06.550Z,23.00
2024-02-10T00:26:39.270Z,22.20
2024-02-10T00:27:05.918Z,21.90
2024-02-10T00:27:32.426Z,22.10
2024-02-10T00:28:05.212Z,22.90
2024-02-10T00:28:37.875Z,23.00
2024-02-10T00:29:10.547Z,21.60
2024-02-10T00:29:43.349Z,22.00
2024-02-10T00:30:15.984Z,21.80
2024-02-10T00:30:48.777Z,23.00
2024-02-10T00:31:21.473Z,23.00
2024-02-10T00:31:54.307Z,21.20
2024-02-10T00:32:27.086Z,21.20
2024-02-10T00:32:59.888Z,21.40
2024-02-10T00:33:32.639Z,21.50
2024-02-10T00:34:05.408Z,21.50
2024-02-10T00:34:38.166Z,20.90
2024-02-10T00:35:10.945Z,21.20
2024-02-10T00:35:43.651Z,20.80
2024-02-10T00:36:16.332Z,20.90
2024-02-10T00:36:49.023Z,21.10
2024-02-10T00:37:21.705Z,20.50
2024-02-10T00:37:54.623Z,21.60
2024-02-10T00:38:20.919Z,21.80
2024-02-10T00:38:53.641Z,21.10
2024-02-10T00:39:26.293Z,20.20
2024-02-10T00:39:58.950Z,20.90
2024-02-10T00:40:31.631Z,20.90
2024-02-10T00:41:04.373Z,21.70
2024-02-10T00:41:37.073Z,21.10
2024-02-10T00:42:09.763Z,20.90
2024-02-10T00:42:42.418Z,20.30
2024-02-10T00:43:15.125Z,20.40
2024-02-10T00:43:47.891Z,20.30
2024-02-10T00:44:20.576Z,20.50
2024-02-10T00:44:53.232Z,20.20
2024-02-10T00:45:25.903Z,20.40
2024-02-10T00:45:58.574Z,19.60
2024-02-10T00:46:31.303Z,20.10
2024-02-10T00:47:04.038Z,19.70
2024-02-10T00:47:36.758Z,19.30
2024-02-10T00:48:09.553Z,19.70
2024-02-10T00:48:42.400Z,19.40
2024-02-10T00:49:15.164Z,19.50
2024-02-10T00:49:47.866Z,19.70
2024-02-10T00:50:20.535Z,19.90
2024-02-10T00:50:53.227Z,19.10
2024-02-10T00:51:25.879Z,19.60
2024-02-10T00:51:58.719Z,19.30
2024-02-10T00:52:31.462Z,19.10
2024-02-10T00:53:04.335Z,19.80
2024-02-10T00:53:37.040Z,18.50
2024-02-10T00:54:09.744Z,19.10
2024-02-10T00:54:42.391Z,19.00
2024-02-10T00:55:15.087Z,19.60
2024-02-10T00:55:46.203Z,18.90
2024-02-10T00:56:18.901Z,19.20
2024-02-10T00:56:51.702Z,17.60
2024-02-10T00:57:24.365Z,18.30
2024-02-10T00:57:57.182Z,18.70
2024-02-10T00:58:29.866Z,18.80
2024-02-10T00:59:02.572Z,18.50
2024-02-10T00:59:35.338Z,19.20
2024-02-10T01:00:07.990Z,19.60
2024-02-10T01:00:40.695Z,19.00
2024-02-10T01:01:13.418Z,19.30
2024-02-10T01:01:46.184Z,19.40
2024-02-10T01:02:18.941Z,20.00
2024-02-10T01:02:51.573Z,18.90
2024-02-10T01:03:24.254Z,19.60
2024-02-10T01:03:57.016Z,19.60
2024-02-10T01:04:29.764Z,20.00
2024-02-10T01:05:02.588Z,20.20
2024-02-10T01:05:35.527Z,19.70
2024-02-10T01:06:08.268Z,19.80
2024-02-10T01:06:41.161Z,20.00
2024-02-10T01:07:13.858Z,20.00
2024-02-10T01:07:46.539Z,19.80
2024-02-10T01:08:19.208Z,20.00
2024-02-10T01:08:52.270Z,20.40
2024-02-10T01:09:18.479Z,20.50
2024-02-10T01:09:51.145Z,20.40
2024-02-10T01:10:23.856Z,20.40
2024-02-10T01:10:56.574Z,19.90
2024-02-10T01:11:29.269Z,19.40
2024-02-10T01:12:01.980Z,20.00
2024-02-10T01:12:34.613Z,19.90
2024-02-10T01:13:07.275Z,19.80
2024-02-10T01:13:39.963Z,19.70
2024-02-10T01:14:12.611Z,20.00
2024-02-10T01:14:45.313Z,19.70
2024-02-10T01:15:18.023Z,20.50
2024-02-10T01:15:50.714Z,20.40
2024-02-10T01:16:23.509Z,20.20
2024-02-10T01:16:56.215Z,19.90
2024-02-10T01:17:28.879Z,20.60
2024-02-10T01:18:01.686Z,20.30
2024-02-10T01:18:28.175Z,20.00
2024-02-10T01:19:00.890Z,20.00
2024-02-10T01:19:32.026Z,20.50
2024-02-10T01:20:04.724Z,20.30
2024-02-10T01:20:37.445Z,19.60
2024-02-10T01:21:10.120Z,20.10
2024-02-10T01:21:42.796Z,19.60
2024-02-10T01:22:15.492Z,20.10
2024-02-10T01:22:48.248Z,20.50
2024-02-10T01:23:20.997Z,19.80
2024-02-10T01:23:52.038Z,19.90
2024-02-10T01:24:24.715Z,20.20
2024-02-10T01:24:56.217Z,20.90
2024-02-10T01:25:22.517Z,20.20
2024-02-10T01:25:55.272Z,20.60
2024-02-10T01:26:27.986Z,20.50
2024-02-10T01:27:00.659Z,20.60
2024-02-10T01:27:33.336Z,20.00
2024-02-10T01:28:06.028Z,20.30
2024-02-10T01:28:38.757Z,19.70
2024-02-10T01:29:11.429Z,20.50
2024-02-10T01:29:44.072Z,20.40
2024-02-10T01:30:16.751Z,20.20
2024-02-10T01:30:49.397Z,20.50
2024-02-10T01:31:22.128Z,20.40
2024-02-10T01:31:54.852Z,21.20
2024-02-10T01:32:27.607Z,21.00
2024-02-10T01:33:00.761Z,20.80
2024-02-10T01:33:27.069Z,20.90
2024-02-10T01:33:59.867Z,20.70
2024-02-10T01:34:32.693Z,19.80
2024-02-10T01:35:05.575Z,20.00
2024-02-10T01:35:38.255Z,20.60
2024-02-10T01:36:10.925Z,20.40
2024-02-10T01:36:43.608Z,20.60
2024-02-10T01:37:16.290Z,20.80
2024-02-10T01:37:48.994Z,20.30
2024-02-10T01:38:21.668Z,20.70
2024-02-10T01:38:54.322Z,20.40
2024-02-10T01:39:26.991Z,20.70
2024-02-10T01:39:59.658Z,20.00
2024-02-10T01:40:32.345Z,19.60
2024-02-10T01:41:05.002Z,19.40
2024-02-10T01:41:37.842Z,20.30
2024-02-10T01:42:10.530Z,19.70
2024-02-10T01:42:43.252Z,19.20
2024-02-10T01:43:15.962Z,19.40
2024-02-10T01:43:48.631Z,20.20
2024-02-10T01:44:21.421Z,19.50
2024-02-10T01:44:54.081Z,20.10
2024-02-10T01:45:26.784Z,19.30
2024-02-10T01:45:59.452Z,20.00
2024-02-10T01:46:32.134Z,20.00
2024-02-10T01:47:04.925Z,19.50
2024-02-10T01:47:37.639Z,19.20
2024-02-10T01:48:10.577Z,19.70
2024-02-10T01:48:43.372Z,19.40
2024-02-10T01:49:16.145Z,18.80
2024-02-10T01:49:48.986Z,19.80
2024-02-10T01:50:21.764Z,19.50
2024-02-10T01:50:54.618Z,20.30
2024-02-10T01:51:27.315Z,19.40
2024-02-10T01:52:00.116Z,19.50
2024-02-10T01:52:32.776Z,19.60
2024-02-10T01:53:05.511Z,20.00
2024-02-10T01:53:38.185Z,19.80
2024-02-10T01:54:10.825Z,19.80
2024-02-10T01:54:43.624Z,20.20
2024-02-10T01:55:16.300Z,19.30
2024-02-10T01:55:49.038Z,19.00
2024-02-10T01:56:21.702Z,19.50
2024-02-10T01:56:54.359Z,19.50
2024-02-10T01:57:27.024Z,20.00
2024-02-10T01:57:59.692Z,19.20
2024-02-10T01:58:32.447Z,19.20
2024-02-10T01:59:05.079Z,19.40
2024-02-10T01:59:37.741Z,20.10
2024-02-10T02:00:10.413Z,19.10
2024-02-10T02:00:43.127Z,19.00
2024-02-10T02:01:15.802Z,19.60
2024-02-10T02:01:48.536Z,20.20
2024-02-10T02:02:21.257Z,19.50
2024-02-10T02:02:53.942Z,19.40
2024-02-10T02:03:26.632Z,19.80
2024-02-10T02:03:59.310Z,18.90
2024-02-10T02:04:32.064Z,19.20
2024-02-10T02:05:04.852Z,19.40
2024-02-10T02:05:37.581Z,19.20
2024-02-10T02:06:10.255Z,20.00
2024-02-10T02:06:42.926Z,19.50
2024-02-10T02:07:15.643Z,19.30
2024-02-10T02:07:48.350Z,19.50
2024-02-10T02:08:21.072Z,19.60
2024-02-10T02:08:54.022Z,20.70
2024-02-10T02:09:26.692Z,19.10
2024-02-10T02:09:59.374Z,19.50
2024-02-10T02:10:32.051Z,19.30
2024-02-10T02:11:04.750Z,18.80
2024-02-10T02:11:37.439Z,19.90
2024-02-10T02:12:10.130Z,19.50
2024-02-10T02:12:42.775Z,18.90
2024-02-10T02:13:15.489Z,19.30
2024-02-10T02:13:48.208Z,19.20
2024-02-10T02:14:20.925Z,18.60
2024-02-10T02:14:53.611Z,19.10
2024-02-10T02:15:26.260Z,18.60
2024-02-10T02:15:58.937Z,19.10
2024-02-10T02:16:31.655Z,19.00
2024-02-10T02:17:04.337Z,19.30
2024-02-10T02:17:37.028Z,19.00
2024-02-10T02:18:09.719Z,19.20
2024-02-10T02:18:42.408Z,18.80
2024-02-10T02:19:15.136Z,19.00
2024-02-10T02:19:47.906Z,18.70
2024-02-10T02:20:20.752Z,18.90
2024-02-10T02:20:53.483Z,19.00
2024-02-10T02:21:26.183Z,18.60
2024-02-10T02:21:58.868Z,19.20
2024-02-10T02:22:31.584Z,19.00
2024-02-10T02:23:04.241Z,18.70
2024-02-10T02:23:36.908Z,18.60
2024-02-10T02:24:09.593Z,18.60
2024-02-10T02:24:42.235Z,18.70
2024-02-10T02:25:15.178Z,19.20
2024-02-10T02:25:47.839Z,18.60
2024-02-10T02:26:20.532Z,18.10
2024-02-10T02:26:53.216Z,19.20
2024-02-10T02:27:25.861Z,18.70
2024-02-10T02:27:58.547Z,18.40
2024-02-10T02:28:31.236Z,18.90
2024-02-10T02:29:03.921Z,18.30
2024-02-10T02:29:36.578Z,18.50
2024-02-10T02:30:09.224Z,17.80
2024-02-10T02:30:41.912Z,17.20
2024-02-10T02:31:14.613Z,17.10
2024-02-10T02:31:47.389Z,17.10
2024-02-10T02:32:20.075Z,17.10
2024-02-10T02:32:52.812Z,17.50
2024-02-10T02:33:25.471Z,16.90
2024-02-10T02:33:58.160Z,16.80
2024-02-10T02:34:30.837Z,17.30
2024-02-10T02:35:03.621Z,17.30
2024-02-10T02:35:34.636Z,16.70
2024-02-10T02:36:07.360Z,16.60
2024-02-10T02:36:40.056Z,15.80
2024-02-10T02:37:12.764Z,16.60
2024-02-10T02:37:45.414Z,16.70
2024-02-10T02:38:18.111Z,15.60
2024-02-10T02:38:50.949Z,16.00
2024-02-10T02:39:23.622Z,16.70
2024-02-10T02:39:56.280Z,15.40
2024-02-10T02:40:28.966Z,16.10
2024-02-10T02:41:01.748Z,17.40
2024-02-10T02:41:34.466Z,16.60
2024-02-10T02:42:07.634Z,16.70
2024-02-10T02:42:33.915Z,17.00
2024-02-10T02:43:06.587Z,16.40
2024-02-10T02:43:39.269Z,16.90
2024-02-10T02:44:11.940Z,16.70
2024-02-10T02:44:44.613Z,16.60
2024-02-10T02:45:17.283Z,17.10
2024-02-10T02:45:49.955Z,17.40
2024-02-10T02:46:22.681Z,16.80
2024-02-10T02:46:55.432Z,16.80
2024-02-10T02:47:28.148Z,16.60
2024-02-10T02:48:00.889Z,17.10
2024-02-10T02:48:33.646Z,17.70
2024-02-10T02:49:06.414Z,17.30
2024-02-10T02:49:39.241Z,17.40
2024-02-10T02:50:11.991Z,17.70
2024-02-10T02:50:44.661Z,17.80
2024-02-10T02:51:17.330Z,17.40
2024-02-10T02:51:50.013Z,17.90
2024-02-10T02:52:22.694Z,17.70
2024-02-10T02:52:55.434Z,17.50
2024-02-10T02:53:28.093Z,17.50
2024-02-10T02:54:00.760Z,17.20
2024-02-10T02:54:33.437Z,17.40
2024-02-10T02:55:06.216Z,18.50
2024-02-10T02:55:38.888Z,17.90
2024-02-10T02:56:11.548Z,18.10
2024-02-10T02:56:44.238Z,17.70
2024-02-10T02:57:16.899Z,17.60
2024-02-10T02:57:49.666Z,17.60
2024-02-10T02:58:22.370Z,17.30
2024-02-10T02:58:55.149Z,18.20
2024-02-10T02:59:27.800Z,18.00
2024-02-10T03:00:00.483Z,17.70
2024-02-10T03:00:33.283Z,17.70
2024-02-10T03:01:06.098Z,17.40
2024-02-10T03:01:38.786Z,17.80
2024-02-10T03:02:11.465Z,17.80
2024-02-10T03:02:44.570Z,17.90
2024-02-10T03:03:11.060Z,17.70
2024-02-10T03:03:37.587Z,17.40
2024-02-10T03:04:10.297Z,17.50
2024-02-10T03:04:43.078Z,18.30
2024-02-10T03:05:15.791Z,18.00
2024-02-10T03:05:48.486Z,18.50
2024-02-10T03:06:21.230Z,18.30
2024-02-10T03:06:53.954Z,18.40
2024-02-10T03:07:26.666Z,17.20
2024-02-10T03:07:59.411Z,18.40
2024-02-10T03:08:32.102Z,18.30
2024-02-10T03:09:04.774Z,17.90
2024-02-10T03:09:35.873Z,18.00
2024-02-10T03:10:08.525Z,17.70
2024-02-10T03:10:41.230Z,17.80
2024-02-10T03:11:13.916Z,18.50
2024-02-10T03:11:46.602Z,18.10
2024-02-10T03:12:19.272Z,17.90
2024-02-10T03:12:51.949Z,17.80
2024-02-10T03:13:24.651Z,17.60
2024-02-10T03:13:57.342Z,18.00
2024-02-10T03:14:30.089Z,17.70
2024-02-10T03:15:02.744Z,17.80
2024-02-10T03:15:35.409Z,18.00
2024-02-10T03:16:08.098Z,18.20
2024-02-10T03:16:41.291Z,19.60
2024-02-10T03:17:07.478Z,18.00
2024-02-10T03:17:40.209Z,18.40
2024-02-10T03:18:13.056Z,18.70
2024-02-10T03:18:45.983Z,18.00
2024-02-10T03:19:18.835Z,18.40
2024-02-10T03:19:51.612Z,18.70
2024-02-10T03:20:24.257Z,18.30
2024-02-10T03:20:57.029Z,17.70
2024-02-10T03:21:29.690Z,17.60
2024-02-10T03:22:02.365Z,18.20
2024-02-10T03:22:35.048Z,17.60
2024-02-10T03:23:07.713Z,18.20
2024-02-10T03:23:40.470Z,17.70
2024-02-10T03:24:13.126Z,17.90
2024-02-10T03:24:45.818Z,17.60
2024-02-10T03:25:18.473Z,18.10
2024-02-10T03:25:51.271Z,18.60
2024-02-10T03:26:23.948Z,17.70
2024-02-10T03:26:56.739Z,18.90
2024-02-10T03:27:23.166Z,18.20
2024-02-10T03:27:55.831Z,18.70
2024-02-10T03:28:28.534Z,17.80
2024-02-10T03:29:01.257Z,19.10
2024-02-10T03:29:33.957Z,18.10
2024-02-10T03:30:06.722Z,17.70
2024-02-10T03:30:39.360Z,18.20
2024-02-10T03:31:12.024Z,17.60
2024-02-10T03:31:44.796Z,18.00
2024-02-10T03:32:17.460Z,17.40
2024-02-10T03:32:50.280Z,18.30
2024-02-10T03:33:16.769Z,17.90
2024-02-10T03:33:49.552Z,17.30
2024-02-10T03:34:22.503Z,17.80
2024-02-10T03:34:48.923Z,18.30
2024-02-10T03:35:21.744Z,17.70
2024-02-10T03:35:54.455Z,17.50
2024-02-10T03:36:27.111Z,18.20
2024-02-10T03:36:59.786Z,18.30
2024-02-10T03:37:32.502Z,18.50
2024-02-10T03:38:05.230Z,18.00
2024-02-10T03:38:37.934Z,17.30
2024-02-10T03:39:10.586Z,18.00
2024-02-10T03:39:43.276Z,17.90
2024-02-10T03:40:16.070Z,18.70
2024-02-10T03:40:42.527Z,17.90
2024-02-10T03:41:15.236Z,16.80
2024-02-10T03:41:47.890Z,18.00
2024-02-10T03:42:20.564Z,17.50
2024-02-10T03:42:53.251Z,18.00
2024-02-10T03:43:25.908Z,18.30
2024-02-10T03:43:58.595Z,18.00
2024-02-10T03:44:31.255Z,17.80
2024-02-10T03:45:03.933Z,17.90
2024-02-10T03:45:36.612Z,18.20
2024-02-10T03:46:09.255Z,18.10
2024-02-10T03:46:41.981Z,17.60
2024-02-10T03:47:14.666Z,18.20
2024-02-10T03:47:47.899Z,18.10
2024-02-10T03:48:14.436Z,18.20
2024-02-10T03:48:47.175Z,17.70
2024-02-10T03:49:19.963Z,17.80
2024-02-10T03:49:52.645Z,17.50
2024-02-10T03:50:25.420Z,17.70
2024-02-10T03:50:58.067Z,18.30
2024-02-10T03:51:30.733Z,17.80
2024-02-10T03:52:03.416Z,17.90
2024-02-10T03:52:36.214Z,17.50
2024-02-10T03:53:08.947Z,18.10
2024-02-10T03:53:41.774Z,17.90
2024-02-10T03:54:14.414Z,18.30
2024-02-10T03:54:47.228Z,17.80
2024-02-10T03:55:19.932Z,17.80
2024-02-10T03:55:52.693Z,18.30
2024-02-10T03:56:25.486Z,17.60
2024-02-10T03:56:58.145Z,17.70
2024-02-10T03:57:30.828Z,17.80
2024-02-10T03:58:03.497Z,17.40
2024-02-10T03:58:36.201Z,18.10
2024-02-10T03:59:08.962Z,17.50
2024-02-10T03:59:41.647Z,18.40
2024-02-10T04:00:14.322Z,18.90
2024-02-10T04:00:47.031Z,18.50
2024-02-10T04:01:19.751Z,18.40
2024-02-10T04:01:52.488Z,17.60
2024-02-10T04:02:25.233Z,18.70
2024-02-10T04:02:57.867Z,18.70
2024-02-10T04:03:30.566Z,17.80
2024-02-10T04:04:03.331Z,17.90
2024-02-10T04:04:36.139Z,17.30
2024-02-10T04:05:08.951Z,18.20
2024-02-10T04:05:41.763Z,18.00
2024-02-10T04:06:14.422Z,18.00
2024-02-10T04:06:47.191Z,18.50
2024-02-10T04:07:19.848Z,18.20
2024-02-10T04:07:52.761Z,18.20
2024-02-10T04:08:19.040Z,17.80
2024-02-10T04:08:51.709Z,18.50
2024-02-10T04:09:24.386Z,17.60
2024-02-10T04:09:57.241Z,18.20
2024-02-10T04:10:29.954Z,18.10
2024-02-10T04:11:02.638Z,18.10
2024-02-10T04:11:35.350Z,18.30
2024-02-10T04:12:08.016Z,17.70
2024-02-10T04:12:40.661Z,18.50
2024-02-10T04:13:13.495Z,18.10
2024-02-10T04:13:44.495Z,18.10
2024-02-10T04:14:17.292Z,17.30
2024-02-10T04:14:49.930Z,17.30
2024-02-10T04:15:22.599Z,16.90
2024-02-10T04:15:55.397Z,18.00
2024-02-10T04:16:28.078Z,17.40
2024-02-10T04:17:00.797Z,17.00
2024-02-10T04:17:33.553Z,17.90
2024-02-10T04:18:06.246Z,17.40
2024-02-10T04:18:39.123Z,17.50
2024-02-10T04:19:11.908Z,18.00
2024-02-10T04:19:44.600Z,17.80
2024-02-10T04:20:17.248Z,17.20
2024-02-10T04:20:49.923Z,18.10
2024-02-10T04:21:22.595Z,17.30
2024-02-10T04:21:55.372Z,17.50
2024-02-10T04:22:28.019Z,16.60
2024-02-10T04:23:00.859Z,16.80
2024-02-10T04:23:33.627Z,17.10
2024-02-10T04:24:06.281Z,17.40
2024-02-10T04:24:38.965Z,17.50
2024-02-10T04:25:11.718Z,17.40
2024-02-10T04:25:44.423Z,17.50
2024-02-10T04:26:17.072Z,17.30
2024-02-10T04:26:49.742Z,16.80
2024-02-10T04:27:22.440Z,17.20
2024-02-10T04:27:55.127Z,16.80
2024-02-10T04:28:27.848Z,17.30
2024-02-10T04:29:00.575Z,17.80
2024-02-10T04:29:33.253Z,16.80
2024-02-10T04:30:05.926Z,16.90
2024-02-10T04:30:38.589Z,17.10
2024-02-10T04:31:11.272Z,16.40
2024-02-10T04:31:43.956Z,16.90
2024-02-10T04:32:16.624Z,16.50
2024-02-10T04:32:49.632Z,17.10
2024-02-10T04:33:16.023Z,17.30
2024-02-10T04:33:49.102Z,16.70
2024-02-10T04:34:15.393Z,16.80
2024-02-10T04:34:48.149Z,16.70
2024-02-10T04:35:20.837Z,16.80
2024-02-10T04:35:53.520Z,16.90
2024-02-10T04:36:26.180Z,17.00
2024-02-10T04:36:58.864Z,16.50
2024-02-10T04:37:31.564Z,16.20
2024-02-10T04:38:04.261Z,16.40
2024-02-10T04:38:36.943Z,16.30
2024-02-10T04:39:09.608Z,16.20
2024-02-10T04:39:42.344Z,16.20
2024-02-10T04:40:15.010Z,16.30
2024-02-10T04:40:47.869Z,16.20
2024-02-10T04:41:20.531Z,15.70
2024-02-10T04:41:53.202Z,16.20
2024-02-10T04:42:24.292Z,15.90
2024-02-10T04:42:56.966Z,16.40
2024-02-10T04:43:29.656Z,15.90
2024-02-10T04:44:02.372Z,16.30
2024-02-10T04:44:35.057Z,15.90
2024-02-10T04:45:07.787Z,16.00
2024-02-10T04:45:40.431Z,15.90
2024-02-10T04:46:13.091Z,16.20
2024-02-10T04:46:45.821Z,16.90
2024-02-10T04:47:18.627Z,16.70
2024-02-10T04:47:51.269Z,16.40
2024-02-10T04:48:23.931Z,16.00
2024-02-10T04:48:56.651Z,15.40
2024-02-10T04:49:29.414Z,16.50
2024-02-10T04:50:02.197Z,15.90
2024-02-10T04:50:34.924Z,16.10
2024-02-10T04:51:07.611Z,15.60
2024-02-10T04:51:43.083Z,15.60
2024-02-10T04:52:09.408Z,15.20
2024-02-10T04:52:42.081Z,16.20
2024-02-10T04:53:14.744Z,16.00
2024-02-10T04:53:47.409Z,16.50
2024-02-10T04:54:20.076Z,15.60
2024-02-10T04:54:52.759Z,15.70
2024-02-10T04:55:25.595Z,16.20
2024-02-10T04:55:58.350Z,15.60
2024-02-10T04:56:31.043Z,16.10
2024-02-10T04:57:03.708Z,15.50
2024-02-10T04:57:36.372Z,16.10
2024-02-10T04:58:09.059Z,15.90
2024-02-10T04:58:41.770Z,16.00
2024-02-10T04:59:14.420Z,16.00
2024-02-10T04:59:47.106Z,15.40
2024-02-10T05:00:19.779Z,15.90
2024-02-10T05:00:52.465Z,15.70
2024-02-10T05:01:25.216Z,15.80
2024-02-10T05:01:58.067Z,14.80
2024-02-10T05:02:30.756Z,15.70
2024-02-10T05:03:03.474Z,15.40
2024-02-10T05:03:36.344Z,15.60
2024-02-10T05:04:08.996Z,16.00
2024-02-10T05:04:41.715Z,16.00
2024-02-10T05:05:47.148Z,15.90
2024-02-10T05:06:19.927Z,15.60
2024-02-10T05:06:52.651Z,15.50
2024-02-10T05:07:25.353Z,15.60
2024-02-10T05:07:58.242Z,15.50
2024-02-10T05:08:31.049Z,15.70
2024-02-10T05:09:03.702Z,16.50
2024-02-10T05:09:36.366Z,16.10
2024-02-10T05:10:09.039Z,16.30
2024-02-10T05:10:41.780Z,16.10
2024-02-10T05:11:14.487Z,15.40
2024-02-10T05:11:47.133Z,14.90
2024-02-10T05:12:19.798Z,15.10
2024-02-10T05:12:52.463Z,14.80
2024-02-10T05:13:25.158Z,15.60
2024-02-10T05:13:57.830Z,16.20
2024-02-10T05:14:30.471Z,16.30
2024-02-10T05:15:03.164Z,16.60
2024-02-10T05:15:35.828Z,17.40
2024-02-10T05:16:08.485Z,16.50
2024-02-10T05:16:41.185Z,16.50
2024-02-10T05:17:13.872Z,17.00
2024-02-10T05:17:46.608Z,16.70
2024-02-10T05:18:19.369Z,17.40
2024-02-10T05:18:52.230Z,17.10
2024-02-10T05:19:26.801Z,17.30
2024-02-10T05:19:53.333Z,16.90
2024-02-10T05:20:26.347Z,17.80
2024-02-10T05:20:52.754Z,16.80
2024-02-10T05:21:25.427Z,16.20
2024-02-10T05:21:58.094Z,15.10
2024-02-10T05:22:30.918Z,16.50
2024-02-10T05:23:03.701Z,16.50
2024-02-10T05:23:36.374Z,16.50
2024-02-10T05:24:09.032Z,16.80
2024-02-10T05:24:41.804Z,17.00
2024-02-10T05:25:14.581Z,17.70
2024-02-10T05:25:47.269Z,16.70
2024-02-10T05:26:20.003Z,17.00
2024-02-10T05:26:52.684Z,16.40
2024-02-10T05:27:25.335Z,17.10
2024-02-10T05:27:58.001Z,16.70
2024-02-10T05:28:30.703Z,15.90
2024-02-10T05:29:03.452Z,16.10
2024-02-10T05:29:36.126Z,16.60
2024-02-10T05:30:08.782Z,15.90
2024-02-10T05:30:41.492Z,14.90
2024-02-10T05:31:14.176Z,15.20
2024-02-10T05:31:46.919Z,14.30
2024-02-10T05:32:19.576Z,14.40
2024-02-10T05:32:52.371Z,15.30
2024-02-10T05:33:25.180Z,14.20
2024-02-10T05:33:57.890Z,14.70
2024-02-10T05:34:30.643Z,15.10
2024-02-10T05:35:03.358Z,15.30
2024-02-10T05:35:36.039Z,15.20
2024-02-10T05:36:08.707Z,16.00
2024-02-10T05:36:41.392Z,15.60
2024-02-10T05:37:14.069Z,15.30
2024-02-10T05:37:46.795Z,15.40
2024-02-10T05:38:19.493Z,15.20
2024-02-10T05:38:50.552Z,15.30
2024-02-10T05:39:23.216Z,15.20
2024-02-10T05:39:55.902Z,15.60
2024-02-10T05:40:28.706Z,15.30
2024-02-10T05:41:01.544Z,15.70
2024-02-10T05:41:34.377Z,15.90
2024-02-10T05:42:07.055Z,15.70
2024-02-10T05:42:39.696Z,16.00
2024-02-10T05:43:12.474Z,15.60
2024-02-10T05:43:45.183Z,16.00
2024-02-10T05:44:17.864Z,15.80
2024-02-10T05:44:50.651Z,16.20
2024-02-10T05:45:23.307Z,16.30
2024-02-10T05:45:56.107Z,16.70
2024-02-10T05:46:28.759Z,16.90
2024-02-10T05:47:01.520Z,16.40
2024-02-10T05:47:34.339Z,16.30
2024-02-10T05:48:07.132Z,16.60
2024-02-10T05:48:39.911Z,15.90
2024-02-10T05:49:12.642Z,16.70
2024-02-10T05:49:45.373Z,16.70
2024-02-10T05:50:18.165Z,17.20
2024-02-10T05:50:50.801Z,16.80
2024-02-10T05:51:23.475Z,16.10
2024-02-10T05:51:56.149Z,16.70
2024-02-10T05:52:28.817Z,16.30
2024-02-10T05:53:01.629Z,15.80
2024-02-10T05:53:34.475Z,16.20
2024-02-10T05:54:07.103Z,16.10
2024-02-10T05:54:39.764Z,16.30
2024-02-10T05:55:12.448Z,16.80
2024-02-10T05:55:45.186Z,16.40
2024-02-10T05:56:17.866Z,16.50
2024-02-10T05:56:50.702Z,16.20
2024-02-10T05:57:21.687Z,16.70
2024-02-10T05:57:54.363Z,16.60
2024-02-10T05:58:27.045Z,16.90
2024-02-10T05:58:59.731Z,16.20
2024-02-10T05:59:32.410Z,16.70
2024-02-10T06:00:05.088Z,16.60
2024-02-10T06:00:37.800Z,16.40
2024-02-10T06:01:10.499Z,17.00
2024-02-10T06:01:43.199Z,17.30
2024-02-10T06:02:16.415Z,16.90
2024-02-10T06:02:42.607Z,16.80
2024-02-10T06:03:15.306Z,16.90
2024-02-10T06:03:48.147Z,17.20
2024-02-10T06:04:20.875Z,16.50
2024-02-10T06:04:53.735Z,16.40
2024-02-10T06:05:29.211Z,16.90
2024-02-10T06:05:57.672Z,17.00
2024-02-10T06:06:30.380Z,16.90
2024-02-10T06:07:03.071Z,16.80
2024-02-10T06:07:35.799Z,16.60
2024-02-10T06:08:08.586Z,16.20
2024-02-10T06:08:41.236Z,16.20
2024-02-10T06:09:13.892Z,16.40
2024-02-10T06:09:46.569Z,16.60
2024-02-10T06:10:19.289Z,16.80
2024-02-10T06:10:51.968Z,17.10
2024-02-10T06:11:24.735Z,16.70
2024-02-10T06:11:57.436Z,17.30
2024-02-10T06:12:30.072Z,16.60
2024-02-10T06:13:02.730Z,16.60
2024-02-10T06:13:35.438Z,17.20
2024-02-10T06:14:08.079Z,17.40
2024-02-10T06:14:40.748Z,16.20
2024-02-10T06:15:13.436Z,17.40
2024-02-10T06:15:46.211Z,17.00
2024-02-10T06:16:18.901Z,17.00
2024-02-10T06:16:51.723Z,17.10
2024-02-10T06:17:25.573Z,17.00
2024-02-10T06:17:53.134Z,16.10
2024-02-10T06:18:25.780Z,17.40
2024-02-10T06:18:58.458Z,17.00
2024-02-10T06:19:31.312Z,17.00
2024-02-10T06:20:04.063Z,16.40
2024-02-10T06:20:36.871Z,17.30
2024-02-10T06:21:09.600Z,16.70
2024-02-10T06:21:42.249Z,17.20
2024-02-10T06:22:14.983Z,16.50
2024-02-10T06:22:47.804Z,17.30
2024-02-10T06:23:20.546Z,17.10
2024-02-10T06:23:53.222Z,17.20
2024-02-10T06:24:25.896Z,16.90
2024-02-10T06:24:58.595Z,17.10
2024-02-10T06:25:31.286Z,17.00
2024-02-10T06:26:03.985Z,16.20
2024-02-10T06:26:36.650Z,16.90
2024-02-10T06:27:09.361Z,17.00
2024-02-10T06:27:42.054Z,16.80
2024-02-10T06:28:14.708Z,17.00
2024-02-10T06:28:47.394Z,17.40
2024-02-10T06:29:20.043Z,17.30
2024-02-10T06:29:52.743Z,17.30
2024-02-10T06:30:25.405Z,17.40
2024-02-10T06:30:58.095Z,16.80
2024-02-10T06:31:30.770Z,16.50
2024-02-10T06:32:03.527Z,17.00
2024-02-10T06:32:36.248Z,16.40
2024-02-10T06:33:09.050Z,17.00
2024-02-10T06:33:41.816Z,17.20
2024-02-10T06:34:14.550Z,17.70
2024-02-10T06:34:47.387Z,17.60
2024-02-10T06:35:20.054Z,17.40
2024-02-10T06:35:52.746Z,16.70
2024-02-10T06:36:25.413Z,17.30
2024-02-10T06:36:58.099Z,17.40
2024-02-10T06:37:29.233Z,17.60
2024-02-10T06:38:01.999Z,17.30
2024-02-10T06:38:34.718Z,17.00
2024-02-10T06:39:07.413Z,16.70
2024-02-10T06:39:40.077Z,17.10
2024-02-10T06:40:12.758Z,17.00
2024-02-10T06:40:45.483Z,17.30
2024-02-10T06:41:18.139Z,17.70
2024-02-10T06:41:50.797Z,17.80
2024-02-10T06:42:23.514Z,17.10
2024-02-10T06:42:56.147Z,17.60
2024-02-10T06:43:28.838Z,16.70
2024-02-10T06:44:01.566Z,17.80
2024-02-10T06:44:34.241Z,17.80
2024-02-10T06:45:06.938Z,17.10
2024-02-10T06:45:39.627Z,16.80
2024-02-10T06:46:12.270Z,17.10
2024-02-10T06:46:45.002Z,16.90
2024-02-10T06:47:19.466Z,17.40
2024-02-10T06:47:46.013Z,16.60
2024-02-10T06:48:18.986Z,17.40
2024-02-10T06:48:45.286Z,17.00
2024-02-10T06:49:18.043Z,16.60
2024-02-10T06:49:50.812Z,16.80
2024-02-10T06:50:23.492Z,17.10
2024-02-10T06:50:56.160Z,16.90
2024-02-10T06:51:28.834Z,16.90
2024-02-10T06:52:01.528Z,17.20
2024-02-10T06:52:34.241Z,16.60
2024-02-10T06:53:06.919Z,16.70
2024-02-10T06:53:39.591Z,17.10
2024-02-10T06:54:12.391Z,16.90
2024-02-10T06:54:45.058Z,16.90
2024-02-10T06:55:17.768Z,16.80
2024-02-10T06:55:50.437Z,17.10
2024-02-10T06:56:23.228Z,17.10
2024-02-10T06:56:55.886Z,16.50
2024-02-10T06:57:28.603Z,17.20
2024-02-10T06:58:01.254Z,17.80
2024-02-10T06:58:33.972Z,17.30